Time;durP1;ratioP1;P1;durP2;ratioP2;P2;SDS_P1;SDS_P2;PMS_P1;PMS_P2;Temp;Humidity;BMP_temperature;BMP_pressure;BME280_temperature;BME280_humidity;BME280_pressure;Samples;Min_cycle;Max_cycle;Signal;HPM_P1;HPM_P2
2023/05/27 00:00:45;;;;;;;13.35;7.80;;;14.10;99.90;;;;;;5007889;28;20029;-79
2023/05/27 00:03:11;;;;;;;13.23;7.82;;;14.10;99.90;;;;;;5006332;28;20060;-79
2023/05/27 00:05:36;;;;;;;9.90;6.78;;;14.10;99.90;;;;;;5005567;28;20029;-79
2023/05/27 00:08:02;;;;;;;11.18;7.53;;;14.00;99.90;;;;;;5003778;28;20151;-79
2023/05/27 00:10:27;;;;;;;14.88;7.15;;;14.00;99.90;;;;;;5006788;28;20050;-79
2023/05/27 00:12:53;;;;;;;13.40;7.20;;;14.00;99.90;;;;;;5006850;28;20030;-79
2023/05/27 00:15:18;;;;;;;12.32;7.28;;;14.00;99.90;;;;;;5005966;28;20035;-79
2023/05/27 00:17:44;;;;;;;13.07;7.07;;;13.90;99.90;;;;;;5003815;28;20026;-79
2023/05/27 00:20:12;;;;;;;13.90;7.47;;;13.90;99.90;;;;;;5002749;28;20057;-79
2023/05/27 00:22:37;;;;;;;16.50;8.50;;;13.80;99.90;;;;;;5006114;28;20524;-79
2023/05/27 00:25:03;;;;;;;14.27;8.57;;;13.80;99.90;;;;;;5005405;28;20033;-78
2023/05/27 00:27:29;;;;;;;12.85;8.27;;;13.70;99.90;;;;;;5003801;28;20041;-79
2023/05/27 00:29:54;;;;;;;14.18;8.20;;;13.70;99.90;;;;;;5004538;28;20103;-79
2023/05/27 00:32:20;;;;;;;13.93;8.57;;;13.70;99.90;;;;;;5004771;28;20100;-79
2023/05/27 00:34:45;;;;;;;17.77;8.52;;;13.60;99.90;;;;;;5004425;28;20037;-79
2023/05/27 00:37:11;;;;;;;13.50;7.70;;;13.60;99.90;;;;;;5005270;28;20593;-79
2023/05/27 00:39:36;;;;;;;12.82;8.45;;;13.50;99.90;;;;;;5007306;28;20029;-79
2023/05/27 00:42:03;;;;;;;13.02;7.85;;;13.50;99.90;;;;;;5007043;28;20037;-79
2023/05/27 00:44:28;;;;;;;13.32;8.38;;;13.50;99.90;;;;;;5006552;28;20378;-79
2023/05/27 00:46:54;;;;;;;16.77;8.35;;;13.40;99.90;;;;;;5006485;28;20042;-79
2023/05/27 00:49:19;;;;;;;11.60;7.45;;;13.40;99.90;;;;;;5006949;28;20033;-78
2023/05/27 00:51:45;;;;;;;10.50;7.43;;;13.30;99.90;;;;;;5006375;28;20128;-78
2023/05/27 00:54:11;;;;;;;11.65;7.45;;;13.30;99.90;;;;;;5006532;28;20042;-79
2023/05/27 00:56:37;;;;;;;12.45;7.65;;;13.30;99.90;;;;;;5006559;28;20532;-79
2023/05/27 00:59:03;;;;;;;13.93;7.70;;;13.20;99.90;;;;;;5007016;28;20034;-79
2023/05/27 01:01:29;;;;;;;13.30;7.82;;;13.20;99.90;;;;;;5007454;28;20026;-78
2023/05/27 01:03:56;;;;;;;13.55;7.78;;;13.20;99.90;;;;;;5006682;28;20100;-79
2023/05/27 01:06:52;;;;;;;12.45;7.47;;;13.10;99.90;;;;;;5006906;28;20033;-79
2023/05/27 01:09:44;;;;;;;12.52;8.00;;;13.10;99.90;;;;;;5006824;28;20505;-79
2023/05/27 01:12:21;;;;;;;12.55;8.00;;;13.10;99.90;;;;;;4978172;28;20038;-79
2023/05/27 01:14:50;;;;;;;12.50;7.60;;;13.00;99.90;;;;;;5006344;28;20092;-79
2023/05/27 01:17:17;;;;;;;13.27;8.35;;;12.90;99.90;;;;;;5006027;28;21403;-79
2023/05/27 01:19:44;;;;;;;14.43;8.25;;;12.90;99.90;;;;;;5006258;28;20030;-79
2023/05/27 01:22:14;;;;;;;14.52;7.65;;;12.90;99.90;;;;;;5007103;28;20022;-78
2023/05/27 01:24:43;;;;;;;15.27;8.23;;;12.90;99.90;;;;;;5006303;28;20075;-79
2023/05/27 01:27:11;;;;;;;14.85;8.45;;;12.80;99.90;;;;;;5006271;28;20091;-79
2023/05/27 01:29:40;;;;;;;12.65;8.20;;;12.80;99.90;;;;;;5006049;28;21078;-79
2023/05/27 01:32:27;;;;;;;15.27;8.52;;;12.70;99.90;;;;;;5005347;28;20030;-79
2023/05/27 01:35:02;;;;;;;13.02;8.48;;;12.70;99.90;;;;;;5006043;28;20022;-78
2023/05/27 01:37:30;;;;;;;;;;;12.70;99.90;;;;;;5005657;28;20030;-79
2023/05/27 01:39:56;;;;;;;13.05;8.55;;;12.60;99.90;;;;;;5005992;28;19940;-79
2023/05/27 01:42:22;;;;;;;15.38;8.35;;;12.60;99.90;;;;;;5005067;28;20168;-79
2023/05/27 01:44:49;;;;;;;12.38;8.32;;;12.60;99.90;;;;;;5006339;28;20067;-79
2023/05/27 01:47:15;;;;;;;18.60;9.40;;;12.50;99.90;;;;;;5005740;28;20046;-79
2023/05/27 01:49:40;;;;;;;16.35;8.82;;;12.50;99.90;;;;;;5006354;28;20037;-79
2023/05/27 01:52:08;;;;;;;12.13;8.05;;;12.40;99.90;;;;;;5006209;28;20026;-78
2023/05/27 01:54:34;;;;;;;13.82;8.85;;;12.40;99.90;;;;;;5004947;28;20044;-78
2023/05/27 01:57:00;;;;;;;17.60;8.38;;;12.40;99.90;;;;;;5004941;28;20030;-79
2023/05/27 01:59:26;;;;;;;13.05;8.93;;;12.40;99.90;;;;;;5004573;28;20095;-79
2023/05/27 02:01:51;;;;;;;13.40;8.27;;;12.40;99.90;;;;;;5005063;28;20048;-79
2023/05/27 02:04:17;;;;;;;16.67;8.65;;;12.30;99.90;;;;;;5006344;28;20060;-79
2023/05/27 02:06:43;;;;;;;13.38;8.30;;;12.30;99.90;;;;;;5010451;28;20084;-79
2023/05/27 02:09:11;;;;;;;15.15;8.40;;;12.30;99.90;;;;;;5011787;28;20460;-79
2023/05/27 02:11:36;;;;;;;15.23;8.85;;;12.20;99.90;;;;;;5008737;28;20509;-79
2023/05/27 02:14:02;;;;;;;13.93;8.77;;;12.20;99.90;;;;;;5004246;28;20038;-79
2023/05/27 02:16:28;;;;;;;13.88;8.55;;;12.20;99.90;;;;;;5004222;28;20064;-79
2023/05/27 02:18:54;;;;;;;14.30;8.55;;;12.20;99.90;;;;;;5004512;28;20108;-79
2023/05/27 02:21:19;;;;;;;15.13;9.40;;;12.10;99.90;;;;;;5004532;28;20065;-79
2023/05/27 02:23:45;;;;;;;16.38;9.18;;;12.10;99.90;;;;;;5004097;28;20656;-79
2023/05/27 02:26:11;;;;;;;15.82;8.50;;;12.10;99.90;;;;;;5003888;28;20797;-79
2023/05/27 02:28:36;;;;;;;13.65;8.88;;;12.10;99.90;;;;;;5004037;28;20466;-79
2023/05/27 02:31:02;;;;;;;18.73;9.68;;;12.00;99.90;;;;;;5004038;28;20057;-79
2023/05/27 02:33:27;;;;;;;14.68;8.65;;;12.00;99.90;;;;;;5003871;28;20033;-79
2023/05/27 02:35:53;;;;;;;17.67;9.50;;;12.00;99.90;;;;;;5003585;28;20046;-79
2023/05/27 02:38:19;;;;;;;13.95;8.57;;;12.00;99.90;;;;;;5003350;28;20021;-78
2023/05/27 02:40:44;;;;;;;13.57;9.40;;;12.00;99.90;;;;;;5004442;28;21325;-78
2023/05/27 02:43:10;;;;;;;17.98;9.15;;;11.90;99.90;;;;;;5004034;28;20037;-79
2023/05/27 02:45:36;;;;;;;17.48;8.48;;;11.90;99.90;;;;;;5003833;28;20449;-79
2023/05/27 02:48:02;;;;;;;16.70;9.23;;;11.90;99.90;;;;;;5003535;28;20033;-79
2023/05/27 02:50:27;;;;;;;11.20;8.75;;;11.90;99.90;;;;;;5003531;28;20030;-78
2023/05/27 02:52:53;;;;;;;15.55;9.02;;;11.80;99.90;;;;;;5003793;28;21412;-79
2023/05/27 02:55:19;;;;;;;13.63;8.80;;;11.80;99.90;;;;;;5008439;28;20034;-78
2023/05/27 02:57:45;;;;;;;13.57;8.77;;;11.80;99.90;;;;;;5008034;28;20401;-78
2023/05/27 03:00:12;;;;;;;17.63;9.63;;;11.80;99.90;;;;;;5006839;28;21366;-78
2023/05/27 03:02:37;;;;;;;19.83;10.02;;;11.80;99.90;;;;;;5009002;28;20030;-79
2023/05/27 03:05:04;;;;;;;21.15;10.70;;;11.70;99.90;;;;;;5008303;28;20529;-79
2023/05/27 03:07:30;;;;;;;19.77;10.38;;;11.70;99.90;;;;;;5008035;28;20182;-78
2023/05/27 03:09:56;;;;;;;19.58;10.60;;;11.70;99.90;;;;;;5009130;28;20030;-79
2023/05/27 03:12:22;;;;;;;14.48;9.73;;;11.70;99.90;;;;;;5008792;28;20022;-78
2023/05/27 03:14:48;;;;;;;13.65;9.05;;;11.70;99.90;;;;;;5136164;22;20041;-85
2023/05/27 03:17:14;;;;;;;15.90;9.73;;;11.70;99.90;;;;;;5036729;28;20029;-86
2023/05/27 03:19:39;;;;;;;16.77;9.75;;;11.60;99.90;;;;;;5042880;28;20025;-84
2023/05/27 03:22:06;;;;;;;13.27;9.40;;;11.60;99.90;;;;;;5042658;28;20025;-85
2023/05/27 03:24:33;;;;;;;17.00;9.70;;;11.60;99.90;;;;;;5043323;28;20040;-86
2023/05/27 03:26:59;;;;;;;17.92;9.63;;;11.60;99.90;;;;;;5042891;28;20848;-86
2023/05/27 03:29:25;;;;;;;18.65;9.70;;;11.50;99.90;;;;;;5042331;28;20025;-80
2023/05/27 03:31:50;;;;;;;16.25;9.88;;;11.50;99.90;;;;;;5038827;28;20049;-83
2023/05/27 03:34:16;;;;;;;18.17;10.68;;;11.50;99.90;;;;;;5021686;28;20035;-83
2023/05/27 03:36:45;;;;;;;19.63;10.68;;;11.50;99.90;;;;;;5038608;28;20052;-88
2023/05/27 03:39:11;;;;;;;21.10;10.90;;;11.50;99.90;;;;;;5039474;28;20029;-83
2023/05/27 03:41:37;;;;;;;16.15;9.90;;;11.50;99.90;;;;;;5039226;28;20048;-83
2023/05/27 03:44:03;;;;;;;16.52;10.13;;;11.50;99.90;;;;;;5037491;28;20504;-86
2023/05/27 03:46:28;;;;;;;13.98;9.48;;;11.40;99.90;;;;;;5035862;28;20058;-86
2023/05/27 03:48:54;;;;;;;15.65;9.95;;;11.40;99.90;;;;;;5036187;28;20528;-84
2023/05/27 03:51:20;;;;;;;15.15;9.45;;;11.40;99.90;;;;;;5035978;28;20025;-85
2023/05/27 03:53:46;;;;;;;16.25;10.43;;;11.40;99.90;;;;;;5037953;28;20783;-84
2023/05/27 03:56:12;;;;;;;12.95;9.30;;;11.40;99.90;;;;;;5036071;28;20064;-85
2023/05/27 03:58:37;;;;;;;15.05;9.27;;;11.40;99.90;;;;;;5041587;28;20056;-83
2023/05/27 04:01:03;;;;;;;17.02;9.27;;;11.40;99.90;;;;;;5047289;28;20025;-83
2023/05/27 04:03:28;;;;;;;15.63;9.48;;;11.40;99.90;;;;;;5043142;28;20025;-83
2023/05/27 04:05:56;;;;;;;17.75;10.18;;;11.40;99.90;;;;;;5044554;28;20027;-85
2023/05/27 04:08:22;;;;;;;14.18;9.48;;;11.40;99.90;;;;;;5044942;28;20086;-83
2023/05/27 04:10:48;;;;;;;18.50;10.32;;;11.50;99.90;;;;;;5039586;28;20025;-85
2023/05/27 04:13:13;;;;;;;14.90;9.52;;;11.50;99.90;;;;;;5036171;28;20029;-86
2023/05/27 04:15:39;;;;;;;13.68;10.32;;;11.50;99.90;;;;;;5033316;28;20505;-86
2023/05/27 04:18:05;;;;;;;16.85;8.82;;;11.50;99.90;;;;;;5033291;28;20110;-84
2023/05/27 04:20:40;;;;;;;14.85;9.35;;;11.50;99.90;;;;;;5018435;28;20021;-82
2023/05/27 04:23:06;;;;;;;15.32;10.07;;;11.60;99.90;;;;;;5039157;28;20074;-85
2023/05/27 04:25:31;;;;;;;18.85;10.02;;;11.60;99.90;;;;;;5031704;28;20033;-81
2023/05/27 04:27:57;;;;;;;14.10;9.13;;;11.60;99.90;;;;;;5031661;28;20033;-73
2023/05/27 04:30:23;;;;;;;16.42;9.50;;;11.60;99.90;;;;;;5034621;28;20025;-80
2023/05/27 04:32:48;;;;;;;12.13;8.55;;;11.70;99.90;;;;;;5036853;28;20033;-79
2023/05/27 04:35:14;;;;;;;12.90;9.10;;;11.70;99.90;;;;;;5035932;28;20028;-80
2023/05/27 04:37:40;;;;;;;16.30;9.32;;;11.80;99.90;;;;;;5036262;28;20025;-79
2023/05/27 04:40:08;;;;;;;14.68;8.55;;;11.80;99.90;;;;;;5036288;28;20055;-80
2023/05/27 04:42:36;;;;;;;13.70;8.55;;;11.90;99.90;;;;;;5036404;28;20499;-80
2023/05/27 04:45:03;;;;;;;13.10;9.05;;;11.90;99.90;;;;;;5036089;28;20045;-79
2023/05/27 04:47:30;;;;;;;16.35;8.85;;;12.00;99.90;;;;;;5033666;28;20135;-79
2023/05/27 04:49:56;;;;;;;16.25;8.48;;;12.10;99.90;;;;;;5037111;28;20029;-80
2023/05/27 04:52:23;;;;;;;16.67;8.90;;;12.10;99.90;;;;;;5036126;28;20048;-80
2023/05/27 04:54:49;;;;;;;14.43;8.65;;;12.20;99.90;;;;;;5036355;28;20029;-81
2023/05/27 04:57:19;;;;;;;19.85;8.95;;;12.30;99.90;;;;;;5035608;28;20026;-80
2023/05/27 05:02:39;;;;;;;14.20;8.48;;;12.40;99.90;;;;;;5036016;28;20033;-80
2023/05/27 05:05:06;;;;;;;16.52;7.18;;;12.50;99.90;;;;;;5035609;28;20125;-80
2023/05/27 05:07:37;;;;;;;14.98;7.90;;;12.60;99.90;;;;;;5035321;28;20671;-81
2023/05/27 05:10:07;;;;;;;18.55;8.60;;;12.60;99.90;;;;;;5018119;28;20045;-81
2023/05/27 05:12:33;;;;;;;14.77;7.65;;;12.70;99.90;;;;;;5036509;28;20094;-80
2023/05/27 05:15:04;;;;;;;17.73;7.97;;;12.80;99.90;;;;;;5036146;28;20033;-80
2023/05/27 05:17:29;;;;;;;15.73;7.85;;;12.90;99.90;;;;;;5036171;28;20040;-81
2023/05/27 05:19:55;;;;;;;17.05;7.82;;;13.00;99.90;;;;;;5037127;28;20428;-81
2023/05/27 05:22:22;;;;;;;16.02;7.25;;;13.00;99.90;;;;;;5037935;28;20036;-81
2023/05/27 05:24:49;;;;;;;13.00;7.20;;;13.10;99.90;;;;;;5037281;28;20088;-81
2023/05/27 05:27:14;;;;;;;13.20;7.15;;;13.10;99.90;;;;;;5034870;28;20390;-80
2023/05/27 05:29:40;;;;;;;15.10;7.05;;;13.20;99.90;;;;;;5035990;28;20476;-80
2023/05/27 05:32:07;;;;;;;15.90;7.47;;;13.30;99.90;;;;;;5033074;28;20128;-81
2023/05/27 05:34:32;;;;;;;17.85;7.45;;;13.40;99.90;;;;;;5034842;28;20051;-81
2023/05/27 05:36:58;;;;;;;15.30;7.95;;;13.50;99.90;;;;;;5017650;28;20030;-82
2023/05/27 05:39:23;;;;;;;14.20;7.35;;;13.60;99.90;;;;;;5036767;28;20122;-82
2023/05/27 05:41:49;;;;;;;13.70;6.93;;;13.70;99.90;;;;;;5036278;28;20030;-82
2023/05/27 05:44:16;;;;;;;17.55;6.78;;;13.80;99.90;;;;;;5036541;28;20039;-82
2023/05/27 05:46:41;;;;;;;12.50;7.15;;;13.90;99.90;;;;;;5035943;28;20392;-81
2023/05/27 05:49:07;;;;;;;11.80;6.25;;;14.10;99.90;;;;;;5035992;28;20029;-82
2023/05/27 05:51:32;;;;;;;9.57;6.43;;;14.20;99.90;;;;;;5036066;28;20121;-81
2023/05/27 05:53:58;;;;;;;12.10;6.68;;;14.30;99.90;;;;;;5036183;28;20026;-81
2023/05/27 05:56:25;;;;;;;15.98;6.78;;;14.40;99.90;;;;;;5018336;28;20068;-81
2023/05/27 05:58:51;;;;;;;14.95;6.90;;;14.60;99.90;;;;;;5036383;28;20493;-79
2023/05/27 06:01:17;;;;;;;13.38;6.20;;;14.70;99.90;;;;;;5037605;28;20029;-78
2023/05/27 06:03:43;;;;;;;14.35;6.28;;;14.80;99.90;;;;;;5038743;28;20248;-80
2023/05/27 06:06:09;;;;;;;11.20;6.25;;;14.90;99.90;;;;;;5040006;28;20823;-79
2023/05/27 06:08:35;;;;;;;12.88;6.97;;;15.00;99.90;;;;;;5017973;28;20511;-79
2023/05/27 06:11:00;;;;;;;12.88;6.82;;;15.10;99.90;;;;;;5035809;28;20033;-79
2023/05/27 06:13:26;;;;;;;13.65;6.97;;;15.10;99.90;;;;;;5035516;28;20115;-80
2023/05/27 06:15:51;;;;;;;12.60;6.45;;;15.20;99.90;;;;;;5035020;28;20022;-79
2023/05/27 06:18:17;;;;;;;13.23;6.43;;;15.30;99.90;;;;;;5034712;28;20029;-79
2023/05/27 06:20:43;;;;;;;20.33;7.13;;;15.40;99.90;;;;;;5034545;28;20667;-79
2023/05/27 06:23:09;;;;;;;14.55;6.18;;;15.50;99.90;;;;;;5034198;28;20120;-79
2023/05/27 06:25:34;;;;;;;14.32;5.72;;;15.60;99.90;;;;;;5034523;28;20044;-79
2023/05/27 06:30:31;;;;;;;11.55;5.57;;;15.70;99.90;;;;;;5001402;28;20057;-79
2023/05/27 06:32:57;;;;;;;10.70;5.72;;;15.80;99.90;;;;;;5010280;28;20034;-79
2023/05/27 06:35:22;;;;;;;15.82;7.05;;;15.80;99.90;;;;;;5010040;28;20088;-79
2023/05/27 06:37:48;;;;;;;14.13;6.03;;;15.90;99.90;;;;;;5012562;28;20022;-79
2023/05/27 06:40:13;;;;;;;12.82;5.82;;;16.00;99.90;;;;;;5012132;28;20018;-78
2023/05/27 06:42:39;;;;;;;14.20;5.50;;;16.00;99.90;;;;;;5042348;22;20061;-82
2023/05/27 06:45:05;;;;;;;17.95;6.05;;;16.00;99.90;;;;;;5028138;28;20037;-81
2023/05/27 06:47:31;;;;;;;12.23;6.05;;;16.10;99.90;;;;;;5028471;28;20514;-82
2023/05/27 06:49:56;;;;;;;11.88;6.05;;;16.20;99.90;;;;;;5033422;28;20112;-83
2023/05/27 06:52:22;;;;;;;14.35;5.75;;;16.30;99.90;;;;;;5034907;28;20037;-82
2023/05/27 06:54:47;;;;;;;13.57;6.03;;;16.30;99.90;;;;;;5034653;28;20037;-81
2023/05/27 06:57:13;;;;;;;14.45;5.68;;;16.30;99.90;;;;;;5034901;28;20164;-80
2023/05/27 06:59:40;;;;;;;13.43;5.53;;;16.40;99.90;;;;;;5033868;28;20030;-81
2023/05/27 07:02:06;;;;;;;11.57;5.00;;;16.40;99.90;;;;;;5032485;28;20037;-81
2023/05/27 07:04:32;;;;;;;11.55;4.80;;;16.50;99.90;;;;;;5033195;28;20021;-81
2023/05/27 07:06:57;;;;;;;13.93;5.15;;;16.50;99.90;;;;;;5032889;28;20118;-81
2023/05/27 07:09:23;;;;;;;13.82;5.60;;;16.60;99.90;;;;;;5033503;28;20024;-82
2023/05/27 07:11:48;;;;;;;14.15;6.25;;;16.60;99.90;;;;;;5033140;28;20041;-79
2023/05/27 07:14:14;;;;;;;13.40;5.05;;;16.60;99.90;;;;;;5031886;28;20036;-79
2023/05/27 07:16:40;;;;;;;12.23;5.13;;;16.70;99.90;;;;;;5033703;28;20540;-80
2023/05/27 07:19:05;;;;;;;15.82;4.78;;;16.70;99.90;;;;;;5032338;28;20446;-80
2023/05/27 07:21:31;;;;;;;15.50;5.40;;;16.80;99.90;;;;;;5034023;28;20025;-80
2023/05/27 07:23:58;;;;;;;13.90;5.30;;;16.90;99.90;;;;;;5032461;28;20024;-79
2023/05/27 07:26:25;;;;;;;19.30;5.15;;;16.90;99.90;;;;;;5015343;28;20040;-81
2023/05/27 07:28:51;;;;;;;14.10;5.60;;;17.00;99.90;;;;;;5032595;28;20029;-80
2023/05/27 07:31:17;;;;;;;14.45;5.63;;;17.10;99.90;;;;;;5032315;28;20073;-79
2023/05/27 07:33:43;;;;;;;17.23;5.68;;;17.10;99.90;;;;;;5033851;28;20117;-79
2023/05/27 07:36:08;;;;;;;11.63;5.57;;;17.20;99.90;;;;;;5034789;28;20025;-79
2023/05/27 07:38:34;;;;;;;13.93;4.97;;;17.10;99.90;;;;;;5033404;28;20029;-79
2023/05/27 07:40:59;;;;;;;15.65;5.70;;;17.20;99.90;;;;;;5036197;28;20053;-79
2023/05/27 07:43:25;;;;;;;11.23;4.80;;;17.30;99.90;;;;;;5036021;28;20075;-79
2023/05/27 07:45:50;;;;;;;12.85;5.00;;;17.30;99.90;;;;;;5037169;28;20040;-79
2023/05/27 07:48:16;;;;;;;12.00;5.32;;;17.40;99.90;;;;;;5036397;28;20044;-79
2023/05/27 07:50:41;;;;;;;14.00;5.38;;;17.50;99.90;;;;;;5034928;28;20037;-80
2023/05/27 07:53:08;;;;;;;15.82;5.07;;;17.60;99.90;;;;;;5036595;28;20036;-79
2023/05/27 07:55:33;;;;;;;11.85;4.70;;;17.60;99.90;;;;;;5037041;28;20385;-80
2023/05/27 07:57:59;;;;;;;15.85;5.63;;;17.60;99.90;;;;;;5038020;28;20033;-80
2023/05/27 08:00:24;;;;;;;15.50;5.55;;;17.70;99.90;;;;;;5039626;28;20669;-81
2023/05/27 08:02:50;;;;;;;10.10;4.65;;;17.80;99.90;;;;;;5038045;28;20040;-80
2023/05/27 08:05:15;;;;;;;12.07;5.07;;;17.90;99.90;;;;;;5038569;28;20040;-81
2023/05/27 08:07:41;;;;;;;17.08;5.22;;;17.90;99.90;;;;;;5039277;28;20032;-81
2023/05/27 08:10:07;;;;;;;9.50;4.60;;;17.90;99.90;;;;;;5038673;28;20045;-81
2023/05/27 08:12:33;;;;;;;16.67;5.22;;;17.90;99.90;;;;;;5039307;28;20032;-81
2023/05/27 08:14:59;;;;;;;15.30;5.95;;;18.00;99.90;;;;;;5036131;28;20029;-80
2023/05/27 08:17:24;;;;;;;14.45;6.32;;;18.00;99.90;;;;;;5036655;28;20030;-81
2023/05/27 08:19:50;;;;;;;13.10;5.18;;;18.00;99.90;;;;;;5036177;28;20101;-80
2023/05/27 08:22:15;;;;;;;14.38;5.80;;;18.10;99.90;;;;;;5038947;28;20437;-81
2023/05/27 08:24:41;;;;;;;11.82;5.28;;;18.20;99.90;;;;;;5040375;28;20032;-80
2023/05/27 08:27:14;;;;;;;13.18;5.47;;;18.20;99.90;;;;;;5040903;28;20052;-81
2023/05/27 08:29:39;;;;;;;14.02;5.40;;;18.30;99.90;;;;;;5038113;28;20056;-80
2023/05/27 08:32:05;;;;;;;16.92;6.00;;;18.30;99.90;;;;;;5037175;28;20029;-81
2023/05/27 08:34:31;;;;;;;16.45;5.15;;;18.40;99.90;;;;;;5036207;28;20060;-81
2023/05/27 08:36:56;;;;;;;16.73;5.25;;;18.50;99.90;;;;;;5038346;28;20033;-79
2023/05/27 08:39:22;;;;;;;12.48;5.20;;;18.50;99.90;;;;;;5037358;28;20222;-81
2023/05/27 08:41:48;;;;;;;15.05;5.45;;;18.60;99.90;;;;;;5036605;28;20053;-80
2023/05/27 08:44:14;;;;;;;15.88;5.82;;;18.60;99.90;;;;;;5036792;28;20044;-81
2023/05/27 08:46:41;;;;;;;11.80;5.80;;;18.70;99.90;;;;;;5038581;28;20052;-81
2023/05/27 08:49:07;;;;;;;14.70;5.50;;;18.70;99.90;;;;;;5037755;28;20250;-80
2023/05/27 08:51:34;;;;;;;15.65;5.55;;;18.80;99.90;;;;;;5039229;28;20071;-81
2023/05/27 08:54:00;;;;;;;14.55;5.53;;;18.90;99.90;;;;;;5035971;28;20040;-80
2023/05/27 08:56:27;;;;;;;11.95;5.40;;;18.90;99.90;;;;;;5038266;28;20029;-80
2023/05/27 08:58:54;;;;;;;13.90;5.88;;;18.80;99.90;;;;;;5036466;28;20040;-81
2023/05/27 09:01:21;;;;;;;14.45;6.20;;;19.00;99.90;;;;;;5035932;28;20034;-80
2023/05/27 09:03:47;;;;;;;11.35;5.03;;;19.00;99.90;;;;;;5037319;28;21162;-80
2023/05/27 09:06:13;;;;;;;12.70;5.45;;;19.10;99.90;;;;;;5037707;28;20031;-81
2023/05/27 09:08:39;;;;;;;12.85;6.05;;;19.20;99.90;;;;;;5036439;28;20480;-80
2023/05/27 09:11:07;;;;;;;15.95;6.00;;;19.30;99.90;;;;;;5035321;28;20056;-80
2023/05/27 09:13:34;;;;;;;13.90;5.55;;;19.40;99.90;;;;;;5036127;28;20547;-80
2023/05/27 09:16:00;;;;;;;13.18;5.70;;;19.50;99.90;;;;;;5037804;28;20025;-80
2023/05/27 09:18:28;;;;;;;13.80;5.57;;;19.60;99.90;;;;;;5016480;28;20037;-81
2023/05/27 09:20:55;;;;;;;15.50;5.70;;;19.60;99.90;;;;;;5035304;28;20033;-80
2023/05/27 09:23:21;;;;;;;15.05;5.45;;;19.60;99.90;;;;;;5035186;28;20061;-81
2023/05/27 09:25:47;;;;;;;14.27;5.70;;;19.70;99.90;;;;;;5036446;28;20450;-81
2023/05/27 09:28:20;;;;;;;11.52;5.22;;;19.80;99.90;;;;;;5035229;28;20166;-80
2023/05/27 09:30:47;;;;;;;12.93;5.35;;;20.00;99.90;;;;;;5035565;28;20052;-80
2023/05/27 09:33:12;;;;;;;13.43;5.38;;;20.20;99.90;;;;;;5035290;28;20041;-81
2023/05/27 09:35:40;;;;;;;15.68;5.63;;;20.40;99.90;;;;;;5034786;28;20033;-81
2023/05/27 09:38:06;;;;;;;15.27;5.65;;;20.70;99.90;;;;;;5033942;28;20493;-81
2023/05/27 09:40:35;;;;;;;17.13;6.15;;;20.90;99.90;;;;;;5033761;28;20025;-81
2023/05/27 09:43:00;;;;;;;12.55;5.20;;;21.10;99.90;;;;;;5037584;28;20045;-81
2023/05/27 09:45:28;;;;;;;11.80;5.78;;;21.40;99.90;;;;;;5034691;28;20392;-81
2023/05/27 09:47:55;;;;;;;13.63;5.68;;;21.70;99.90;;;;;;5032301;28;20050;-81
2023/05/27 09:50:21;;;;;;;12.23;6.28;;;21.80;99.90;;;;;;5035403;28;20033;-81
2023/05/27 09:52:48;;;;;;;13.00;5.60;;;21.80;99.90;;;;;;5042899;28;20029;-80
2023/05/27 09:55:14;;;;;;;12.80;5.80;;;21.90;99.90;;;;;;5042109;28;20112;-81
2023/05/27 09:57:41;;;;;;;12.68;5.40;;;21.90;99.90;;;;;;5035887;28;20041;-83
2023/05/27 10:00:11;;;;;;;12.75;5.55;;;22.00;99.90;;;;;;5033682;28;20024;-83
2023/05/27 10:02:41;;;;;;;13.68;5.35;;;22.10;99.90;;;;;;5036895;28;20061;-86
2023/05/27 10:05:07;;;;;;;14.45;6.07;;;22.40;99.90;;;;;;5035065;28;20032;-79
2023/05/27 10:07:40;;;;;;;13.75;6.00;;;22.50;99.90;;;;;;5035416;28;21017;-80
2023/05/27 10:10:11;;;;;;;13.90;5.57;;;22.50;99.90;;;;;;5035831;28;20109;-80
2023/05/27 10:12:38;;;;;;;13.32;6.10;;;22.60;99.90;;;;;;5036177;28;20033;-80
2023/05/27 10:15:04;;;;;;;15.77;6.32;;;22.70;99.90;;;;;;5033673;28;20036;-80
2023/05/27 10:17:51;;;;;;;11.60;5.32;;;22.70;99.90;;;;;;5034851;28;20029;-81
2023/05/27 10:20:30;;;;;;;14.25;5.38;;;22.60;99.90;;;;;;5034591;28;20044;-80
2023/05/27 10:22:57;;;;;;;12.52;5.43;;;22.50;99.90;;;;;;5035289;28;20033;-80
2023/05/27 10:25:35;;;;;;;16.13;5.75;;;22.50;99.90;;;;;;5035776;28;20052;-80
2023/05/27 10:28:00;;;;;;;13.25;5.80;;;22.70;99.90;;;;;;5035764;28;20044;-81
2023/05/27 10:30:26;;;;;;;16.08;5.60;;;22.90;99.90;;;;;;5034343;28;20048;-80
2023/05/27 10:32:53;;;;;;;9.75;4.78;;;23.00;99.90;;;;;;5035055;28;20040;-80
2023/05/27 10:35:19;;;;;;;10.48;4.93;;;23.20;99.90;;;;;;5035060;28;20055;-80
2023/05/27 10:37:46;;;;;;;11.55;5.43;;;23.30;99.90;;;;;;5035495;28;20037;-80
2023/05/27 10:40:12;;;;;;;14.98;5.65;;;23.50;99.90;;;;;;5036377;28;20026;-80
2023/05/27 10:42:38;;;;;;;13.65;5.20;;;23.60;99.90;;;;;;5035603;28;20059;-80
2023/05/27 10:45:06;;;;;;;15.15;7.70;;;23.40;99.90;;;;;;5034951;28;20041;-81
2023/05/27 10:47:35;;;;;;;15.23;7.05;;;23.60;99.90;;;;;;5035050;28;20124;-82
2023/05/27 10:50:10;;;;;;;10.55;5.85;;;23.40;99.90;;;;;;5034635;28;21029;-81
2023/05/27 10:52:38;;;;;;;12.63;5.40;;;23.50;99.90;;;;;;5035511;28;20056;-81
2023/05/27 10:55:06;;;;;;;11.70;5.60;;;23.60;99.90;;;;;;5034852;28;20028;-80
2023/05/27 10:57:32;;;;;;;13.10;5.78;;;23.80;99.90;;;;;;5035019;28;20040;-79
2023/05/27 11:00:03;;;;;;;9.32;5.85;;;23.90;99.90;;;;;;5033637;28;20451;-80
2023/05/27 11:02:35;;;;;;;12.93;5.88;;;24.00;99.90;;;;;;5034818;28;20124;-81
2023/05/27 11:05:00;;;;;;;11.35;5.45;;;23.90;99.90;;;;;;5035061;28;20026;-81
2023/05/27 11:07:26;;;;;;;12.25;5.63;;;23.90;99.90;;;;;;5034967;28;20412;-79
2023/05/27 11:09:55;;;;;;;12.30;5.72;;;23.80;99.90;;;;;;5034442;28;20040;-80
2023/05/27 11:12:22;;;;;;;9.95;4.80;;;23.60;99.90;;;;;;5035078;28;20081;-81
2023/05/27 11:14:53;;;;;;;11.10;5.70;;;23.60;99.90;;;;;;5040953;28;20036;-81
2023/05/27 11:17:19;;;;;;;9.43;5.32;;;23.70;99.90;;;;;;5040095;28;20128;-80
2023/05/27 11:19:45;;;;;;;12.10;5.13;;;23.90;99.90;;;;;;5040200;28;20033;-79
2023/05/27 11:22:13;;;;;;;13.60;5.30;;;24.20;99.90;;;;;;5041977;28;20033;-80
2023/05/27 11:24:38;;;;;;;16.00;4.97;;;24.20;99.90;;;;;;5044123;28;20053;-81
2023/05/27 11:27:14;;;;;;;9.65;4.60;;;24.20;99.90;;;;;;5040978;28;20084;-82
2023/05/27 11:29:52;;;;;;;10.32;5.40;;;24.30;99.90;;;;;;5020946;28;20029;-82
2023/05/27 11:32:18;;;;;;;12.63;5.43;;;24.40;99.90;;;;;;5038019;28;20433;-81
2023/05/27 11:34:45;;;;;;;11.85;5.38;;;24.50;99.90;;;;;;5038388;28;20025;-81
2023/05/27 11:37:12;;;;;;;11.73;4.63;;;24.70;99.20;;;;;;5037218;28;20037;-81
2023/05/27 11:39:37;;;;;;;11.95;4.80;;;24.70;99.90;;;;;;5038157;28;20064;-81
2023/05/27 11:42:08;;;;;;;11.15;5.03;;;24.80;99.90;;;;;;5038473;28;20052;-81
2023/05/27 11:44:34;;;;;;;10.68;5.55;;;25.10;98.10;;;;;;5038852;28;20036;-81
2023/05/27 11:47:00;;;;;;;11.10;5.50;;;25.00;97.90;;;;;;5038866;28;20033;-80
2023/05/27 11:49:27;;;;;;;9.68;5.85;;;24.90;99.30;;;;;;5037594;28;20083;-81
2023/05/27 11:51:56;;;;;;;11.45;5.30;;;24.70;97.40;;;;;;5036950;28;20501;-80
2023/05/27 11:54:30;;;;;;;12.05;5.15;;;24.70;97.40;;;;;;5037223;28;20083;-81
2023/05/27 11:56:58;;;;;;;10.98;5.45;;;24.90;99.90;;;;;;5038208;28;20037;-80
2023/05/27 11:59:24;;;;;;;15.60;5.97;;;24.90;98.00;;;;;;5037022;28;21062;-80
2023/05/27 12:01:51;;;;;;;12.75;5.20;;;25.00;97.10;;;;;;5039448;28;20056;-80
2023/05/27 12:04:17;;;;;;;10.65;5.68;;;25.20;98.60;;;;;;5035299;28;20040;-82
2023/05/27 12:06:44;;;;;;;12.30;6.13;;;25.30;98.00;;;;;;5035904;28;20045;-81
2023/05/27 12:09:10;;;;;;;11.48;5.05;;;25.20;97.60;;;;;;5036209;28;20036;-80
2023/05/27 12:11:37;;;;;;;10.82;5.25;;;25.20;98.70;;;;;;5036049;28;20033;-80
2023/05/27 12:14:02;;;;;;;10.82;5.47;;;25.20;97.10;;;;;;5034282;28;20107;-81
2023/05/27 12:16:30;;;;;;;12.57;5.18;;;25.10;97.10;;;;;;5035356;28;20104;-80
2023/05/27 12:18:58;;;;;;;11.85;5.07;;;25.10;95.40;;;;;;5035934;28;20029;-80
2023/05/27 12:21:24;;;;;;;16.60;6.10;;;25.10;95.10;;;;;;5036677;28;20253;-81
2023/05/27 12:23:50;;;;;;;12.18;5.22;;;25.10;93.50;;;;;;5035760;28;20029;-81
2023/05/27 12:26:16;;;;;;;10.45;5.63;;;25.10;94.30;;;;;;5035621;28;20032;-81
2023/05/27 12:28:42;;;;;;;14.38;5.82;;;25.10;92.90;;;;;;5039127;28;20029;-81
2023/05/27 12:31:08;;;;;;;12.18;4.47;;;25.20;92.60;;;;;;5036965;28;20033;-82
2023/05/27 12:33:34;;;;;;;9.95;4.50;;;25.30;94.10;;;;;;5037126;28;20032;-80
2023/05/27 12:36:00;;;;;;;10.40;4.82;;;25.40;94.50;;;;;;5034859;28;20179;-80
2023/05/27 12:38:26;;;;;;;15.38;4.90;;;25.40;95.00;;;;;;5033811;28;20025;-81
2023/05/27 12:40:56;;;;;;;10.25;5.20;;;25.50;93.80;;;;;;5034824;28;20029;-80